Aeolos — V7PS2 — position and weather

sailwx.info

Track history (hours):
 
Tides and Currents Weather Stations Pressure Air Temp Water Temp Dewpoint Dewpoint Depression Visibility Wind Speed Wind Dir Waves Ship Positions

Aeolos

Last reported at 2016-May-21 21:19 UTC. Time now 2016-May-29 03:58 UTC.
Position N 26°13' W 078°54'.

Length 172 m; draft 10 m.

Type: Cargo ship. MMSI: 538003275.

Date/timePositionNaut miles runAvg speedWind from/ knotsBaromVisibWave heightAir tempDewpointWater temp
2016-May-21 21:19N 26°13' W 078°54'1114.4
2016-May-21 20:32N 26°13' W 079°07'1514.7
2016-May-21 19:32N 26°06' W 079°22'1515.8
2016-May-21 18:33N 25°53' W 079°29'  
2016-May-19 04:32N 29°45' W 090°01'1111.0
2016-May-19 03:33N 29°54' W 089°54'10 9.7
2016-May-19 02:33N 29°55' W 090°05'10 9.6
2016-May-19 01:33N 29°58' W 090°16'  
2016-May-15 06:21N 29°59' W 090°49'5 6.4
2016-May-15 05:33N 30°01' W 090°44'26 2.0
2016-May-14 16:33N 29°57' W 090°14'5 5.2
2016-May-14 15:33N 29°55' W 090°08'6 6.5
2016-May-14 14:33N 29°57' W 090°01'1 1.2
2016-May-14 13:33N 29°56' W 089°60'0 0.0
2016-May-14 12:33N 29°56' W 089°60'0 0.0
2016-May-14 11:33N 29°56' W 089°60'0 0.0
2016-May-14 10:33N 29°56' W 089°60'0 0.0
2016-May-14 09:33N 29°56' W 089°60'0 0.0
2016-May-14 08:33N 29°56' W 089°60'0 0.0
2016-May-14 07:33N 29°56' W 089°60'0 0.0
2016-May-14 06:33N 29°56' W 089°60'0 0.0
2016-May-14 05:33N 29°56' W 089°60'0 0.0
2016-May-14 04:33N 29°56' W 089°60'0 0.0
2016-May-14 03:33N 29°56' W 089°60'0 0.0
2016-May-14 02:33N 29°56' W 089°60'0 0.0
2016-May-14 01:33N 29°56' W 089°60'0 0.0
2016-May-14 00:33N 29°56' W 089°60'0 0.0
2016-May-13 23:33N 29°56' W 089°60'0 0.0
2016-May-13 22:33N 29°56' W 089°60'0 0.0
2016-May-13 21:33N 29°56' W 089°60'0 0.0
2016-May-13 20:33N 29°56' W 089°60'0 0.0
2016-May-13 19:33N 29°56' W 089°60'0 0.0
2016-May-13 18:33N 29°56' W 089°60'0 0.0
2016-May-13 17:33N 29°56' W 089°60'0 0.0
2016-May-13 16:33N 29°56' W 089°60'0 0.0
2016-May-13 15:33N 29°56' W 089°60'5 5.3
2016-May-13 14:33N 29°54' W 089°54'7 7.2
2016-May-13 13:33N 29°49' W 090°00'  
Track history (hours):
 
Tides and Currents Weather Stations Pressure Air Temp Water Temp Dewpoint Dewpoint Depression Visibility Wind Speed Wind Dir Waves Ship Positions

Aeolos

Last reported at 2016-May-21 21:19 UTC. Time now 2016-May-29 03:58 UTC.
Position N 26°13' W 078°54'.

Length 172 m; draft 10 m.

Type: Cargo ship. MMSI: 538003275.

Date/timePositionNaut miles runAvg speedWind from/ knotsBaromVisibWave heightAir tempDewpointWater temp
2016-May-21 21:19N 26°13' W 078°54'1114.4
2016-May-21 20:32N 26°13' W 079°07'1514.7
2016-May-21 19:32N 26°06' W 079°22'1515.8
2016-May-21 18:33N 25°53' W 079°29'  
2016-May-19 04:32N 29°45' W 090°01'1111.0
2016-May-19 03:33N 29°54' W 089°54'10 9.7
2016-May-19 02:33N 29°55' W 090°05'10 9.6
2016-May-19 01:33N 29°58' W 090°16'  
2016-May-15 06:21N 29°59' W 090°49'5 6.4
2016-May-15 05:33N 30°01' W 090°44'26 2.0
2016-May-14 16:33N 29°57' W 090°14'5 5.2
2016-May-14 15:33N 29°55' W 090°08'6 6.5
2016-May-14 14:33N 29°57' W 090°01'1 1.2
2016-May-14 13:33N 29°56' W 089°60'0 0.0
2016-May-14 12:33N 29°56' W 089°60'0 0.0
2016-May-14 11:33N 29°56' W 089°60'0 0.0
2016-May-14 10:33N 29°56' W 089°60'0 0.0
2016-May-14 09:33N 29°56' W 089°60'0 0.0
2016-May-14 08:33N 29°56' W 089°60'0 0.0
2016-May-14 07:33N 29°56' W 089°60'0 0.0
2016-May-14 06:33N 29°56' W 089°60'0 0.0
2016-May-14 05:33N 29°56' W 089°60'0 0.0
2016-May-14 04:33N 29°56' W 089°60'0 0.0
2016-May-14 03:33N 29°56' W 089°60'0 0.0
2016-May-14 02:33N 29°56' W 089°60'0 0.0
2016-May-14 01:33N 29°56' W 089°60'0 0.0
2016-May-14 00:33N 29°56' W 089°60'0 0.0
2016-May-13 23:33N 29°56' W 089°60'0 0.0
2016-May-13 22:33N 29°56' W 089°60'0 0.0
2016-May-13 21:33N 29°56' W 089°60'0 0.0
2016-May-13 20:33N 29°56' W 089°60'0 0.0
2016-May-13 19:33N 29°56' W 089°60'0 0.0
2016-May-13 18:33N 29°56' W 089°60'0 0.0
2016-May-13 17:33N 29°56' W 089°60'0 0.0
2016-May-13 16:33N 29°56' W 089°60'0 0.0
2016-May-13 15:33N 29°56' W 089°60'5 5.3
2016-May-13 14:33N 29°54' W 089°54'7 7.2
2016-May-13 13:33N 29°49' W 090°00'  

Dump ship's entire track history